Relevés stations proches


LFBH - La Rochelle, Charente Maritime
Mise à jour: 16/08/2018 08:30
Clair
Clair
 Wind from varies
Vent: varies 4 km/h
Température: 24°C
Point de rosée: 16°C
Humidité: 61%
Baromètre: 1016 hPa
Ciel: Clair
Visibilité: Supérieure à 10 km
2018/08/16 08:30 LFBH 160830Z AUTO VRB02KT CAVOK 24/16 Q1016 BECMG 30015KT
LFBC - Cognac, Charente
Mise à jour: 16/08/2018 08:30
Clair
Clair
 Wind from SSO
Vent: SSO 9 km/h
Température: 24°C
Point de rosée: 19°C
Humidité: 74%
Baromètre: 1016 hPa
Ciel: Clair
Visibilité: Supérieure à 10 km
2018/08/16 08:30 LFBC 160830Z AUTO 20005KT CAVOK 24/19 Q1016 NOSIG
 
LFBU - Angoulème, Charente
Mise à jour: 16/08/2018 08:30
Clair
Clair
 Wind from S
Vent: S 7 km/h
Température: 24°C
Point de rosée: 14°C
Humidité: 54%
Baromètre: 1016 hPa
Ciel: Clair
Visibilité: Supérieure à 10 km
2018/08/16 08:30 LFBU 160830Z AUTO 17004KT 100V210 CAVOK 24/14 Q1016 NOSIG
LFRI - La Roche sur Yon, Vendée
Mise à jour: 16/08/2018 08:30
Clair
Clair
 Wind from varies
Vent: varies 6 km/h
Température: 22°C
Point de rosée: 15°C
Humidité: 65%
Baromètre: 1016 hPa
Ciel: Clair
Visibilité: Supérieure à 10 km
2018/08/16 08:30 LFRI 160830Z AUTO VRB03KT CAVOK 22/15 Q1016 NOSIG
 
LFBI - Poitiers, Vienne
Mise à jour: 16/08/2018 08:30
Clair
Clair
 Wind from varies
Vent: varies 6 km/h
Température: 24°C
Point de rosée: 14°C
Humidité: 54%
Baromètre: 1016 hPa
Ciel: Clair
Visibilité: Supérieure à 10 km
2018/08/16 08:30 LFBI 160830Z AUTO VRB03KT CAVOK 24/14 Q1016 NOSIG
LFRS - Nantes, Loire Atlantique
Mise à jour: 16/08/2018 08:30
Nuageux
Nuageux
 Wind from O
Vent: O 6 km/h
Température: 19°C
Point de rosée: 17°C
Humidité: 88%
Baromètre: 1016 hPa
Ciel: Nuageux
Visibilité: 10 km
Détails plafond nuageux: Nuageux 122 m
2018/08/16 08:30 LFRS 160830Z AUTO 27003KT 190V320 9999 BKN004 19/17 Q1016 BECMG NSC
 
LFBD - Bordeaux, Gironde
Mise à jour: 16/08/2018 08:30
Clair
Clair
 Wind from SO
Vent: SO 6 km/h
Température: 26°C
Point de rosée: 17°C
Humidité: 58%
Baromètre: 1016 hPa
Ciel: Clair
Visibilité: Supérieure à 10 km
2018/08/16 08:30 LFBD 160830Z AUTO 23003KT 180V280 CAVOK 26/17 Q1016 NOSIG
LFBL - Limoges, Haute Vienne
Mise à jour: 16/08/2018 08:30
Clair
Clair
 Wind from S
Vent: S 9 km/h
Température: 23°C
Point de rosée: 13°C
Humidité: 53%
Baromètre: 1017 hPa
Ciel: Clair
Visibilité: Supérieure à 10 km
2018/08/16 08:30 LFBL 160830Z AUTO 17005KT 130V220 CAVOK 23/13 Q1017 NOSIG